createdAt,value
2019-03-23T00:01:42.121Z,66.23
2019-03-23T00:04:15.887Z,73.70
2019-03-23T00:06:49.389Z,92.43
2019-03-23T00:09:22.925Z,59.37
2019-03-23T00:11:56.552Z,123.40
2019-03-23T00:14:30.031Z,54.77
2019-03-23T00:17:03.565Z,56.03
2019-03-23T00:19:36.920Z,61.60
2019-03-23T00:22:10.429Z,67.77
2019-03-23T00:24:43.909Z,61.50
2019-03-23T00:27:18.379Z,59.87
2019-03-23T00:29:51.800Z,73.10
2019-03-23T00:32:25.276Z,48.63
2019-03-23T00:34:58.690Z,58.03
2019-03-23T00:37:32.230Z,115.33
2019-03-23T00:40:08.198Z,59.10
2019-03-23T00:42:41.746Z,68.53
2019-03-23T00:45:15.183Z,101.87
2019-03-23T00:47:48.645Z,61.53
2019-03-23T00:50:22.012Z,57.03
2019-03-23T00:52:55.480Z,49.83
2019-03-23T00:55:28.978Z,42.17
2019-03-23T00:58:02.507Z,58.47
2019-03-23T01:00:36.008Z,59.53
2019-03-23T01:03:09.609Z,159.57
2019-03-23T01:05:43.037Z,108.93
2019-03-23T01:08:16.608Z,82.07
2019-03-23T01:10:50.073Z,57.57
2019-03-23T01:13:24.012Z,60.27
2019-03-23T01:15:57.697Z,69.40
2019-03-23T01:18:31.422Z,64.50
2019-03-23T01:21:05.105Z,58.43
2019-03-23T01:23:38.747Z,48.20
2019-03-23T01:26:12.463Z,49.37
2019-03-23T01:28:46.049Z,61.63
2019-03-23T01:31:19.471Z,55.60
2019-03-23T01:33:52.996Z,48.70
2019-03-23T01:36:26.540Z,32.13
2019-03-23T01:39:00.057Z,28.40
2019-03-23T01:41:33.956Z,21.87
2019-03-23T01:44:07.564Z,23.27
2019-03-23T01:46:40.985Z,29.73
2019-03-23T01:49:14.582Z,20.67
2019-03-23T01:51:48.191Z,28.70
2019-03-23T01:54:21.735Z,38.50
2019-03-23T01:56:55.359Z,33.30
2019-03-23T01:59:28.971Z,31.67
2019-03-23T02:02:02.464Z,33.03
2019-03-23T02:04:36.067Z,50.57
2019-03-23T02:07:13.862Z,49.00
2019-03-23T02:09:44.744Z,61.83
2019-03-23T02:12:18.347Z,51.97
2019-03-23T02:14:51.847Z,63.67
2019-03-23T02:17:25.471Z,72.67
2019-03-23T02:19:58.973Z,56.23
2019-03-23T02:22:32.541Z,48.53
2019-03-23T02:25:07.200Z,59.50
2019-03-23T02:27:40.744Z,65.87
2019-03-23T02:30:14.449Z,66.77
2019-03-23T02:32:48.204Z,46.63
2019-03-23T02:35:21.652Z,50.47
2019-03-23T02:37:55.212Z,50.47
2019-03-23T02:40:30.844Z,63.53
2019-03-23T02:43:07.185Z,66.57
2019-03-23T02:45:40.964Z,55.60
2019-03-23T02:48:14.665Z,47.50
2019-03-23T02:50:48.223Z,48.20
2019-03-23T02:53:21.692Z,59.50
2019-03-23T02:55:55.354Z,74.67
2019-03-23T02:58:30.691Z,62.33
2019-03-23T03:01:04.186Z,88.97
2019-03-23T03:03:41.758Z,52.30
2019-03-23T03:06:15.371Z,60.57
2019-03-23T03:08:48.962Z,58.27
2019-03-23T03:11:26.579Z,57.17
2019-03-23T03:14:00.424Z,51.30
2019-03-23T03:16:35.327Z,56.83
2019-03-23T03:19:10.247Z,58.00
2019-03-23T03:21:46.421Z,62.33
2019-03-23T03:24:20.018Z,61.87
2019-03-23T03:26:53.545Z,65.43
2019-03-23T03:29:27.280Z,64.03
2019-03-23T03:32:01.534Z,64.17
2019-03-23T03:34:35.045Z,71.97
2019-03-23T03:37:08.547Z,76.67
2019-03-23T03:39:41.939Z,55.43
2019-03-23T03:42:15.602Z,63.87
2019-03-23T03:44:49.214Z,44.63
2019-03-23T03:47:22.756Z,45.27
2019-03-23T03:49:56.222Z,41.23
2019-03-23T03:52:29.854Z,36.70
2019-03-23T03:55:03.737Z,41.30
2019-03-23T03:57:37.233Z,42.23
2019-03-23T04:00:10.884Z,61.93
2019-03-23T04:02:44.337Z,53.10
2019-03-23T04:05:17.878Z,51.90
2019-03-23T04:07:51.416Z,70.97
2019-03-23T04:10:24.941Z,59.23
2019-03-23T04:12:58.984Z,47.73
2019-03-23T04:15:32.557Z,52.43
2019-03-23T04:18:06.041Z,63.27
2019-03-23T04:20:39.571Z,51.63
2019-03-23T04:23:13.087Z,63.00
2019-03-23T04:25:46.742Z,53.97
2019-03-23T04:28:20.373Z,55.83
2019-03-23T04:30:53.828Z,53.50
2019-03-23T04:33:27.258Z,56.27
2019-03-23T04:36:00.814Z,62.33
2019-03-23T04:38:34.302Z,64.53
2019-03-23T04:41:07.821Z,72.27
2019-03-23T04:43:41.392Z,77.30
2019-03-23T04:46:14.891Z,122.83
2019-03-23T04:48:48.516Z,109.10
2019-03-23T04:51:21.974Z,67.70
2019-03-23T04:53:55.709Z,77.67
2019-03-23T04:56:29.256Z,78.50
2019-03-23T04:59:02.889Z,154.40
2019-03-23T05:01:36.388Z,171.37
2019-03-23T05:04:10.054Z,175.10
2019-03-23T05:06:43.550Z,179.23
2019-03-23T05:09:17.093Z,143.37
2019-03-23T05:11:50.579Z,115.50
2019-03-23T05:14:24.118Z,128.60
2019-03-23T05:16:57.679Z,112.63
2019-03-23T05:19:31.421Z,107.43
2019-03-23T05:22:04.920Z,131.37
2019-03-23T05:24:38.575Z,101.67
2019-03-23T05:27:11.998Z,95.30
2019-03-23T05:29:45.545Z,100.80
2019-03-23T05:32:19.048Z,102.53
2019-03-23T05:34:52.514Z,84.90
2019-03-23T05:37:26.142Z,90.70
2019-03-23T05:39:59.652Z,89.33
2019-03-23T05:42:33.152Z,82.33
2019-03-23T05:45:07.782Z,79.33
2019-03-23T05:47:41.338Z,88.00
2019-03-23T05:50:14.879Z,71.37
2019-03-23T05:52:48.489Z,75.57
2019-03-23T05:55:22.167Z,81.80
2019-03-23T05:57:55.614Z,75.77
2019-03-23T06:00:29.247Z,73.17
2019-03-23T06:03:02.998Z,71.57
2019-03-23T06:05:39.539Z,73.03
2019-03-23T06:08:13.147Z,64.10
2019-03-23T06:10:46.790Z,73.07
2019-03-23T06:13:20.268Z,86.33
2019-03-23T06:15:53.837Z,81.47
2019-03-23T06:18:27.542Z,82.63
2019-03-23T06:21:01.261Z,75.83
2019-03-23T06:23:34.961Z,69.60
2019-03-23T06:26:08.486Z,68.43
2019-03-23T06:28:42.075Z,73.13
2019-03-23T06:31:15.520Z,79.07
2019-03-23T06:33:49.018Z,71.87
2019-03-23T06:36:22.706Z,75.83
2019-03-23T06:39:05.013Z,73.00
2019-03-23T06:41:31.401Z,82.87
2019-03-23T06:44:05.114Z,75.90
2019-03-23T06:46:38.773Z,72.63
2019-03-23T06:49:12.243Z,76.33
2019-03-23T06:51:45.862Z,83.57
2019-03-23T06:54:19.338Z,82.87
2019-03-23T06:56:52.842Z,85.93
2019-03-23T06:59:26.297Z,74.87
2019-03-23T07:01:59.735Z,89.97
2019-03-23T07:04:33.229Z,97.53
2019-03-23T07:07:06.870Z,95.73
2019-03-23T07:09:40.557Z,93.17
2019-03-23T07:12:15.790Z,84.97
2019-03-23T07:14:50.415Z,90.33
2019-03-23T07:17:24.639Z,97.00
2019-03-23T07:19:58.937Z,111.97
2019-03-23T07:22:33.052Z,101.30
2019-03-23T07:25:09.230Z,96.53
2019-03-23T07:27:43.253Z,97.70
2019-03-23T07:30:20.021Z,101.73
2019-03-23T07:32:54.614Z,103.03
2019-03-23T07:35:28.494Z,102.80
2019-03-23T07:38:02.572Z,103.77
2019-03-23T07:40:36.784Z,118.70
2019-03-23T07:43:10.688Z,109.07
2019-03-23T07:45:44.713Z,121.97
2019-03-23T07:48:18.774Z,118.43
2019-03-23T07:50:52.873Z,116.03
2019-03-23T07:53:26.697Z,109.67
2019-03-23T07:56:00.690Z,110.43
2019-03-23T07:58:34.517Z,105.17
2019-03-23T08:01:08.558Z,115.23
2019-03-23T08:03:44.296Z,105.27
2019-03-23T08:06:18.201Z,116.27
2019-03-23T08:08:52.119Z,115.17
2019-03-23T08:11:29.090Z,115.20
2019-03-23T08:14:02.940Z,115.23
2019-03-23T08:16:36.913Z,115.37
2019-03-23T08:19:10.587Z,117.80
2019-03-23T08:21:44.789Z,113.47
2019-03-23T08:24:20.393Z,111.63
2019-03-23T08:26:54.877Z,99.67
2019-03-23T08:29:28.877Z,106.10
2019-03-23T08:32:03.533Z,108.27
2019-03-23T08:34:37.675Z,111.57
2019-03-23T08:37:12.137Z,99.90
2019-03-23T08:39:48.693Z,103.20
2019-03-23T08:42:21.806Z,93.97
2019-03-23T08:44:55.868Z,98.00
2019-03-23T08:47:30.210Z,95.43
2019-03-23T08:50:05.952Z,92.60
2019-03-23T08:52:39.992Z,95.50
2019-03-23T08:55:14.026Z,94.10
2019-03-23T08:57:47.983Z,89.23
2019-03-23T09:00:21.844Z,90.13
2019-03-23T09:02:55.286Z,89.20
2019-03-23T09:05:29.480Z,96.80
2019-03-23T09:08:05.095Z,97.07
2019-03-23T09:10:40.471Z,102.23
2019-03-23T09:13:15.717Z,91.00
2019-03-23T09:15:49.861Z,96.13
2019-03-23T09:18:23.731Z,88.90
2019-03-23T09:20:57.661Z,86.27
2019-03-23T09:23:32.953Z,87.87
2019-03-23T09:26:08.500Z,102.93
2019-03-23T09:28:42.559Z,89.57
2019-03-23T09:31:17.965Z,82.23
2019-03-23T09:33:51.865Z,88.53
2019-03-23T09:36:26.130Z,92.17
2019-03-23T09:39:01.089Z,90.80
2019-03-23T09:41:35.130Z,88.30
2019-03-23T09:44:09.250Z,87.67
2019-03-23T09:46:42.958Z,88.83
2019-03-23T09:49:17.056Z,90.37
2019-03-23T09:51:51.102Z,101.07
2019-03-23T09:54:25.165Z,95.10
2019-03-23T09:56:59.949Z,99.47
2019-03-23T09:59:33.930Z,94.50
2019-03-23T10:02:08.466Z,92.20
2019-03-23T10:04:47.215Z,95.07
2019-03-23T10:07:21.947Z,83.60
2019-03-23T10:09:56.156Z,82.23
2019-03-23T10:12:30.099Z,85.20
2019-03-23T10:15:06.081Z,86.53
2019-03-23T10:17:40.346Z,87.87
2019-03-23T10:20:14.141Z,72.77
2019-03-23T10:22:48.032Z,77.80
2019-03-23T10:25:22.883Z,73.28
2019-03-23T10:27:56.891Z,71.20
2019-03-23T10:30:30.829Z,71.90
2019-03-23T10:33:05.443Z,68.40
2019-03-23T10:35:39.531Z,67.40
2019-03-23T10:38:13.615Z,64.72
2019-03-23T10:40:47.889Z,63.65
2019-03-23T10:43:22.094Z,61.58
2019-03-23T10:45:56.283Z,54.73
2019-03-23T10:48:30.405Z,54.40
2019-03-23T10:51:04.464Z,58.10
2019-03-23T10:53:38.495Z,57.78
2019-03-23T10:56:12.400Z,53.28
2019-03-23T10:58:46.394Z,54.90
2019-03-23T11:01:20.400Z,56.83
2019-03-23T11:03:54.830Z,60.23
2019-03-23T11:06:28.841Z,55.75
2019-03-23T11:09:02.984Z,57.70
2019-03-23T11:11:37.218Z,48.33
2019-03-23T11:14:11.173Z,46.75
2019-03-23T11:16:44.985Z,48.02
2019-03-23T11:19:19.031Z,48.35
2019-03-23T11:21:53.102Z,50.17
2019-03-23T11:24:27.003Z,44.85
2019-03-23T11:27:01.202Z,43.33
2019-03-23T11:29:35.243Z,44.35
2019-03-23T11:32:09.211Z,48.70
2019-03-23T11:34:43.434Z,44.53
2019-03-23T11:37:19.900Z,44.13
2019-03-23T11:39:53.778Z,42.15
2019-03-23T11:42:27.762Z,43.13
2019-03-23T11:45:01.897Z,43.28
2019-03-23T11:47:36.058Z,43.83
2019-03-23T11:50:13.070Z,42.45
2019-03-23T11:52:47.225Z,43.63
2019-03-23T11:55:21.021Z,39.20
2019-03-23T11:57:55.374Z,41.80
2019-03-23T12:00:29.359Z,41.42
2019-03-23T12:03:03.417Z,42.70
2019-03-23T12:05:37.055Z,43.55
2019-03-23T12:08:10.861Z,40.23
2019-03-23T12:10:45.043Z,37.28
2019-03-23T12:13:19.303Z,37.13
2019-03-23T12:15:53.418Z,40.17
2019-03-23T12:18:27.460Z,35.85
2019-03-23T12:21:01.492Z,41.68
2019-03-23T12:23:35.450Z,41.60
2019-03-23T12:26:09.531Z,38.10
2019-03-23T12:28:43.593Z,39.30
2019-03-23T12:31:18.140Z,36.13
2019-03-23T12:33:52.279Z,40.48
2019-03-23T12:36:26.361Z,37.90
2019-03-23T12:39:00.511Z,37.85
2019-03-23T12:41:34.615Z,37.42
2019-03-23T12:44:08.632Z,41.13
2019-03-23T12:46:48.349Z,39.58
2019-03-23T12:49:18.444Z,42.45
2019-03-23T12:51:52.533Z,41.42
2019-03-23T12:54:28.077Z,44.40
2019-03-23T12:57:02.008Z,41.00
2019-03-23T12:59:35.938Z,46.68
2019-03-23T13:02:09.988Z,40.98
2019-03-23T13:04:44.559Z,47.20
2019-03-23T13:07:18.635Z,48.15
2019-03-23T13:09:52.393Z,41.75
2019-03-23T13:12:26.295Z,43.68
2019-03-23T13:15:00.317Z,47.48
2019-03-23T13:17:34.410Z,42.88
2019-03-23T13:20:09.078Z,40.92
2019-03-23T13:22:43.267Z,44.13
2019-03-23T13:25:17.206Z,48.20
2019-03-23T13:27:51.238Z,43.23
2019-03-23T13:30:25.012Z,44.65
2019-03-23T13:32:59.028Z,43.73
2019-03-23T13:35:32.857Z,40.55
2019-03-23T13:38:06.954Z,39.30
2019-03-23T13:40:40.943Z,44.03
2019-03-23T13:43:15.159Z,44.13
2019-03-23T13:45:48.915Z,45.15
2019-03-23T13:48:23.977Z,50.05
2019-03-23T13:50:57.897Z,47.78
2019-03-23T13:53:33.452Z,42.43
2019-03-23T13:56:07.389Z,43.85
2019-03-23T13:58:41.490Z,44.93
2019-03-23T14:01:15.407Z,45.52
2019-03-23T14:03:50.724Z,47.62
2019-03-23T14:06:24.248Z,46.30
2019-03-23T14:08:58.228Z,44.60
2019-03-23T14:11:32.351Z,47.38
2019-03-23T14:14:06.357Z,45.35
2019-03-23T14:16:40.478Z,53.45
2019-03-23T14:19:14.268Z,54.20
2019-03-23T14:21:47.917Z,55.03
2019-03-23T14:24:21.873Z,58.30
2019-03-23T14:26:56.410Z,56.48
2019-03-23T14:29:30.504Z,59.63
2019-03-23T14:32:05.689Z,62.40
2019-03-23T14:34:39.971Z,61.53
2019-03-23T14:37:14.278Z,63.40
2019-03-23T14:39:48.304Z,71.28
2019-03-23T14:42:24.701Z,65.72
2019-03-23T14:44:58.845Z,61.48
2019-03-23T14:47:32.703Z,70.15
2019-03-23T14:50:07.565Z,60.58
2019-03-23T14:52:41.474Z,62.55
2019-03-23T14:55:15.778Z,68.97
2019-03-23T14:57:50.636Z,61.90
2019-03-23T15:00:32.149Z,66.00
2019-03-23T15:03:06.119Z,69.87
2019-03-23T15:05:40.282Z,66.07
2019-03-23T15:08:14.124Z,65.62
2019-03-23T15:10:48.141Z,74.15
2019-03-23T15:13:22.271Z,65.78
2019-03-23T15:15:58.235Z,71.37
2019-03-23T15:18:32.363Z,69.22
2019-03-23T15:21:06.625Z,68.00
2019-03-23T15:23:40.683Z,69.92
2019-03-23T15:26:14.750Z,70.92
2019-03-23T15:28:48.665Z,69.72
2019-03-23T15:31:22.744Z,71.27
2019-03-23T15:33:56.738Z,75.03
2019-03-23T15:36:30.621Z,68.57
2019-03-23T15:39:06.504Z,67.77
2019-03-23T15:41:40.433Z,68.97
2019-03-23T15:44:14.495Z,69.90
2019-03-23T15:46:48.457Z,69.63
2019-03-23T15:49:22.543Z,62.10
2019-03-23T15:51:56.528Z,70.77
2019-03-23T15:54:35.316Z,67.08
2019-03-23T15:57:09.293Z,60.20
2019-03-23T15:59:43.383Z,69.90
2019-03-23T16:02:17.364Z,61.43
2019-03-23T16:04:51.501Z,60.63
2019-03-23T16:07:29.519Z,65.00
2019-03-23T16:10:02.026Z,57.67
2019-03-23T16:12:37.712Z,57.97
2019-03-23T16:15:14.362Z,64.47
2019-03-23T16:17:48.612Z,56.63
2019-03-23T16:20:22.814Z,57.30
2019-03-23T16:22:57.003Z,62.43
2019-03-23T16:25:33.697Z,51.42
2019-03-23T16:28:07.810Z,55.45
2019-03-23T16:30:43.009Z,55.25
2019-03-23T16:33:17.009Z,52.47
2019-03-23T16:35:51.401Z,57.40
2019-03-23T16:38:25.441Z,55.33
2019-03-23T16:40:59.721Z,54.20
2019-03-23T16:43:33.795Z,49.67
2019-03-23T16:46:07.678Z,44.60
2019-03-23T16:48:41.835Z,44.95
2019-03-23T16:51:15.993Z,44.48
2019-03-23T16:53:50.164Z,47.00
2019-03-23T16:56:24.067Z,46.90
2019-03-23T16:58:58.222Z,43.00
2019-03-23T17:01:32.135Z,39.03
2019-03-23T17:04:06.169Z,40.20
2019-03-23T17:06:46.349Z,40.00
2019-03-23T17:09:16.008Z,37.28
2019-03-23T17:11:49.935Z,41.67
2019-03-23T17:14:24.226Z,36.63
2019-03-23T17:17:00.239Z,41.90
2019-03-23T17:19:33.927Z,38.10
2019-03-23T17:22:08.058Z,41.92
2019-03-23T17:24:42.061Z,41.77
2019-03-23T17:27:17.462Z,40.60
2019-03-23T17:29:51.807Z,47.43
2019-03-23T17:32:25.794Z,42.27
2019-03-23T17:35:00.109Z,37.30
2019-03-23T17:37:34.097Z,37.83
2019-03-23T17:40:08.794Z,45.77
2019-03-23T17:42:42.706Z,42.70
2019-03-23T17:45:18.827Z,38.93
2019-03-23T17:47:52.901Z,39.80
2019-03-23T17:50:27.064Z,42.00
2019-03-23T17:53:00.999Z,42.43
2019-03-23T17:55:35.113Z,37.77
2019-03-23T17:58:09.042Z,41.77
2019-03-23T18:00:43.270Z,33.77
2019-03-23T18:03:18.127Z,40.43
2019-03-23T18:05:52.985Z,46.80
2019-03-23T18:08:26.931Z,39.27
2019-03-23T18:11:02.294Z,38.77
2019-03-23T18:13:36.212Z,38.87
2019-03-23T18:16:12.188Z,36.63
2019-03-23T18:18:46.205Z,38.57
2019-03-23T18:21:20.372Z,32.77
2019-03-23T18:23:54.436Z,36.37
2019-03-23T18:26:29.379Z,37.20
2019-03-23T18:29:03.517Z,39.33
2019-03-23T18:31:37.632Z,37.40
2019-03-23T18:34:11.787Z,34.87
2019-03-23T18:36:46.309Z,35.13
2019-03-23T18:39:20.327Z,35.10
2019-03-23T18:41:55.633Z,40.87
2019-03-23T18:44:29.803Z,37.53
2019-03-23T18:47:05.224Z,38.53
2019-03-23T18:49:39.359Z,47.30
2019-03-23T18:52:13.307Z,39.57
2019-03-23T18:54:47.258Z,39.70
2019-03-23T18:57:21.421Z,41.37
2019-03-23T18:59:55.761Z,46.13
2019-03-23T19:02:30.190Z,44.87
2019-03-23T19:05:04.752Z,36.73
2019-03-23T19:07:38.613Z,35.57
2019-03-23T19:10:13.043Z,40.70
2019-03-23T19:12:48.433Z,38.97
2019-03-23T19:15:22.449Z,44.03
2019-03-23T19:17:56.628Z,34.67
2019-03-23T19:20:32.089Z,44.23
2019-03-23T19:23:05.971Z,28.17
2019-03-23T19:25:40.194Z,28.77
2019-03-23T19:28:14.277Z,22.30
2019-03-23T19:30:48.290Z,18.60
2019-03-23T19:33:22.969Z,18.50
2019-03-23T19:35:57.236Z,17.70
2019-03-23T19:38:31.204Z,22.07
2019-03-23T19:41:05.680Z,20.80
2019-03-23T19:43:48.271Z,20.27
2019-03-23T19:46:16.044Z,29.10
2019-03-23T19:48:49.992Z,46.73
2019-03-23T19:51:24.070Z,36.10
2019-03-23T19:53:58.053Z,20.43
2019-03-23T19:56:31.581Z,20.30
2019-03-23T19:59:05.075Z,22.70
2019-03-23T20:01:38.615Z,22.67
2019-03-23T20:04:12.039Z,18.13
2019-03-23T20:06:45.681Z,21.90
2019-03-23T20:09:19.340Z,19.17
2019-03-23T20:11:52.863Z,19.10
2019-03-23T20:14:26.270Z,17.00
2019-03-23T20:16:59.805Z,18.47
2019-03-23T20:19:33.319Z,15.10
2019-03-23T20:22:06.784Z,18.73
2019-03-23T20:24:40.154Z,19.67
2019-03-23T20:27:13.681Z,14.07
2019-03-23T20:29:47.188Z,19.47
2019-03-23T20:32:20.796Z,14.13
2019-03-23T20:34:54.287Z,22.50
2019-03-23T20:37:28.067Z,14.03
2019-03-23T20:40:01.476Z,15.57
2019-03-23T20:42:35.029Z,14.20
2019-03-23T20:45:09.579Z,14.67
2019-03-23T20:47:43.186Z,14.60
2019-03-23T20:50:16.810Z,15.80
2019-03-23T20:52:50.329Z,20.07
2019-03-23T20:55:28.896Z,16.40
2019-03-23T20:58:02.546Z,16.60
2019-03-23T21:00:36.126Z,19.27
2019-03-23T21:03:09.632Z,15.97
2019-03-23T21:05:43.141Z,11.57
2019-03-23T21:08:16.708Z,18.20
2019-03-23T21:10:50.233Z,18.30
2019-03-23T21:13:23.801Z,17.73
2019-03-23T21:15:57.472Z,22.30
2019-03-23T21:18:30.938Z,17.40
2019-03-23T21:21:04.468Z,21.97
2019-03-23T21:23:38.254Z,22.40
2019-03-23T21:26:11.891Z,21.17
2019-03-23T21:28:45.407Z,16.50
2019-03-23T21:31:19.009Z,19.47
2019-03-23T21:33:52.572Z,25.63
2019-03-23T21:36:26.073Z,20.30
2019-03-23T21:38:59.541Z,18.57
2019-03-23T21:41:33.339Z,18.07
2019-03-23T21:44:06.765Z,25.60
2019-03-23T21:46:40.388Z,21.07
2019-03-23T21:49:14.447Z,15.57
2019-03-23T21:51:48.405Z,22.53
2019-03-23T21:54:22.205Z,21.23
2019-03-23T21:56:55.794Z,109.83
2019-03-23T21:59:29.727Z,64.73
2019-03-23T22:02:03.548Z,56.27
2019-03-23T22:04:39.752Z,48.80
2019-03-23T22:07:13.546Z,32.90
2019-03-23T22:09:47.108Z,31.00
2019-03-23T22:12:20.865Z,26.33
2019-03-23T22:14:54.448Z,24.40
2019-03-23T22:17:28.229Z,28.10
2019-03-23T22:20:01.916Z,26.77
2019-03-23T22:22:35.429Z,26.00
2019-03-23T22:25:09.304Z,26.37
2019-03-23T22:27:44.132Z,19.90
2019-03-23T22:30:18.212Z,20.07
2019-03-23T22:32:51.820Z,19.47
2019-03-23T22:35:25.421Z,21.33
2019-03-23T22:37:58.961Z,22.23
2019-03-23T22:40:32.732Z,19.20
2019-03-23T22:43:06.302Z,23.77
2019-03-23T22:45:39.749Z,21.17
2019-03-23T22:48:13.497Z,21.90
2019-03-23T22:50:46.912Z,18.23
2019-03-23T22:53:20.373Z,27.63
2019-03-23T22:55:53.823Z,19.93
2019-03-23T22:58:27.260Z,26.70
2019-03-23T23:01:00.694Z,23.17
2019-03-23T23:03:34.148Z,18.70
2019-03-23T23:06:07.737Z,18.50
2019-03-23T23:08:41.107Z,19.10
2019-03-23T23:11:14.596Z,23.60
2019-03-23T23:13:48.125Z,16.40
2019-03-23T23:16:21.588Z,19.77
2019-03-23T23:18:55.276Z,15.10
2019-03-23T23:21:28.766Z,30.43
2019-03-23T23:24:02.289Z,15.23
2019-03-23T23:26:35.791Z,15.13
2019-03-23T23:29:09.339Z,16.20
2019-03-23T23:31:42.846Z,18.03
2019-03-23T23:34:16.415Z,16.77
2019-03-23T23:36:49.978Z,14.00
2019-03-23T23:39:23.410Z,18.17
2019-03-23T23:41:56.937Z,14.63
2019-03-23T23:44:30.679Z,15.83
2019-03-23T23:47:04.235Z,22.33
2019-03-23T23:49:37.852Z,17.10
2019-03-23T23:52:11.310Z,17.80
2019-03-23T23:54:44.760Z,23.40
2019-03-23T23:57:18.253Z,20.07
2019-03-23T23:59:51.700Z,18.43
